Latest Weather Observations for Falls Creek

IDV60801

Issued at 10:05 am EST Saturday 2 August 2014 (issued every 30 minutes, with the page automatically refreshed every 10 minutes)

About weather observations | Map of weather stations | Latest weather observations for VIC | Other Formats
Station Details ID: 083084 Name: FALLS CREEK Lat: -36.87 Lon: 147.28 Height: 1765.0 m
Data from the previous 72 hours. | See also: Recent months at Falls Creek
Date/Time
EST
Temp
°C
App
Temp
°C
Dew
Point
Rel
Hum
%
Delta-T
°C
Wind Press
QNH
hPa
Press
MSL
hPa
Rain
since 9 am
mm
Dir
 
Spd
km/h
Gust
km/h
Spd
kts
Gust
kts
02/10:00am -6.5 -17.2 -8.1 88 0.2 S 41 52 22 28 1021.9 - 0.0
02/09:30am -6.9 -16.1 -9.0 85 0.4 S 33 44 18 24 1021.8 - 0.0
02/09:00am -7.1 -18.2 -8.9 87 0.3 S 43 56 23 30 1021.1 1023.5 4.0
02/08:30am -7.3 -18.1 -9.8 82 0.4 S 41 52 22 28 1020.6 - 4.0
02/08:00am -7.9 -19.6 -9.0 92 0.0 S 46 54 25 29 1019.7 - 4.0
02/07:30am -7.8 -19.9 -9.3 89 0.1 S 48 57 26 31 1019.0 - 4.0
02/07:00am -7.8 -17.9 -9.9 85 0.3 S 37 44 20 24 1018.8 - 4.0
02/06:30am -7.6 -14.8 -9.1 89 0.2 S 22 32 12 17 1019.0 - 3.8
02/06:00am -7.0 -13.7 -8.1 92 0.1 SSE 20 28 11 15 1018.8 1021.1 3.6
02/05:30am -6.6 -13.3 -7.5 93 0.0 S 20 28 11 15 1018.2 - 3.2
02/05:00am -6.8 -16.0 -8.0 91 0.1 S 33 43 18 23 1017.8 - 2.2
02/04:30am -6.6 -17.6 -7.4 94 0.0 S 43 52 23 28 1017.4 - 1.4
02/04:00am -7.0 -19.8 -7.9 93 0.0 S 52 63 28 34 1016.1 - 1.0
02/03:30am -6.7 -20.2 -7.5 94 0.0 S 56 67 30 36 1015.1 - 0.4
02/03:00am -6.3 -19.3 -6.7 97 -0.1 SSW 54 69 29 37 1014.8 1016.9 0.0
02/02:56am -6.3 -17.2 -6.7 97 -0.1 SSW 43 63 23 34 1014.8 - 0.0
02/02:30am -6.7 -10.9 -7.6 93 0.0 SSW 7 7 4 4 1014.5 - 0.0
02/02:00am -6.3 -10.2 -6.7 97 -0.1 SSW 6 7 3 4 1014.4 - 0.0
02/01:30am -6.3 -10.2 -6.7 97 -0.1 SSW 6 7 3 4 1014.6 - 0.0
02/01:00am -6.2 -11.4 -6.6 97 -0.1 SSW 13 19 7 10 1014.2 - 0.0
02/12:30am -6.5 -11.8 -6.9 97 -0.1 SSW 13 15 7 8 1014.3 - 0.0
02/12:00am -6.8 -12.5 -7.9 92 0.1 SSW 15 19 8 10 1013.7 1015.8 0.0
 
Date/Time
EST
Temp
°C
App
Temp
°C
Dew
Point
Rel
Hum
%
Delta-T
°C
Wind Press
QNH
hPa
Press
MSL
hPa
Rain
since 9 am
mm
Dir
 
Spd
km/h
Gust
km/h
Spd
kts
Gust
kts
01/11:30pm -6.7 -12.8 -7.8 92 0.1 S 17 20 9 11 1012.7 - 0.0
01/11:00pm -6.7 -12.4 -7.5 94 0.0 S 15 19 8 10 1012.4 - 0.0
01/10:30pm -6.7 -12.0 -7.5 94 0.0 SSW 13 15 7 8 1012.6 - 0.0
01/10:00pm -6.5 -11.0 -7.2 95 0.0 SSW 9 15 5 8 1012.3 - 0.0
01/09:30pm -6.1 -11.3 -6.6 96 -0.1 SSW 13 19 7 10 1011.4 - 0.0
01/09:00pm -5.3 -9.3 -5.4 99 -0.2 WSW 7 11 4 6 1011.2 1013.2 0.0
01/08:30pm -5.4 -9.4 -5.5 99 -0.2 W 7 9 4 5 1010.5 - 0.0
01/08:00pm -5.5 -9.3 -5.8 98 -0.1 W 6 11 3 6 1009.8 - 0.0
01/07:30pm -5.6 -9.6 -5.9 98 -0.1 W 7 9 4 5 1009.2 - 0.0
01/07:00pm -5.7 -9.7 -6.0 98 -0.1 W 7 11 4 6 1008.5 - 0.0
01/06:30pm -5.8 -10.6 -6.1 98 -0.1 W 11 13 6 7 1007.6 - 0.0
01/06:00pm -5.5 -9.9 -5.8 98 -0.1 W 9 13 5 7 1007.0 1008.8 0.0
01/05:30pm -5.0 -9.3 -5.1 99 -0.2 W 9 13 5 7 1006.4 - 0.0
01/05:00pm -5.0 -9.7 -5.1 99 -0.2 W 11 17 6 9 1005.5 - 0.0
01/04:30pm -5.0 -10.1 -5.1 99 -0.2 W 13 17 7 9 1005.0 - 0.0
01/04:00pm -5.0 -9.3 -5.1 99 -0.2 WNW 9 13 5 7 1004.2 - 0.0
01/03:30pm -5.0 -9.7 -5.1 99 -0.2 WNW 11 19 6 10 1003.5 - 0.0
01/03:00pm -5.2 -9.9 -5.3 99 -0.2 NW 11 17 6 9 1003.0 1004.6 0.0
01/02:30pm -5.3 -10.0 -5.4 99 -0.2 NW 11 17 6 9 1002.7 - 0.0
01/02:00pm -5.1 -9.4 -5.2 99 -0.2 NW 9 15 5 8 1002.6 - 0.0
01/01:30pm -5.1 -9.4 -5.2 99 -0.2 NNW 9 15 5 8 1002.3 - 0.0
01/01:00pm -5.0 -9.3 -5.1 99 -0.2 NNW 9 17 5 9 1002.4 - 0.0
01/12:30pm -5.1 -9.8 -5.2 99 -0.2 NNW 11 15 6 8 1002.1 - 0.0
01/12:00pm -5.1 -10.2 -5.2 99 -0.2 NNW 13 19 7 10 1001.8 1003.4 0.0
01/11:30am -5.1 -10.2 -5.2 99 -0.2 NNW 13 20 7 11 1001.8 - 0.0
01/11:00am -5.6 -12.1 -5.9 98 -0.1 NNW 20 32 11 17 1001.8 - 0.0
01/10:30am -5.2 -12.4 -5.3 99 -0.2 NNW 24 35 13 19 1001.1 - 0.0
01/10:00am -5.3 -13.3 -5.4 99 -0.2 NNW 28 37 15 20 1001.2 - 0.0
01/09:30am -5.4 -13.0 -5.5 99 -0.2 NNW 26 44 14 24 1001.9 - 0.0
01/09:00am -5.5 -14.8 -5.6 99 -0.2 NNW 35 54 19 29 1001.8 1003.4 3.6
01/08:38am -5.6 -14.4 -5.7 99 -0.2 NNW 32 57 17 31 1001.2 - 3.6
01/08:30am -5.8 -14.6 -6.1 98 -0.1 NNW 32 48 17 26 1001.3 - 3.6
01/08:01am -5.8 -14.6 -6.1 98 -0.1 NNW 32 52 17 28 1001.2 - 3.6
01/08:00am -5.8 -14.6 -6.1 98 -0.1 NNW 32 46 17 25 1001.3 - 3.6
01/07:33am -6.2 -14.7 -6.5 98 -0.2 WNW 30 48 16 26 1001.7 - 3.6
01/07:30am -6.3 -15.1 -6.6 98 -0.2 WNW 32 48 17 26 1001.7 - 3.6
01/07:00am -6.4 -15.8 -6.7 98 -0.2 WNW 35 50 19 27 1001.3 - 3.6
01/06:38am -6.4 -14.5 -6.7 98 -0.2 WNW 28 52 15 28 1001.2 - 3.6
01/06:30am -6.5 -15.0 -6.8 98 -0.2 WNW 30 41 16 22 1001.2 - 3.6
01/06:00am -6.5 -15.4 -6.8 98 -0.2 WNW 32 54 17 29 1000.8 1002.4 3.6
01/05:39am -6.0 -14.1 -6.3 98 -0.1 WNW 28 50 15 27 1000.6 - 3.6
01/05:30am -5.9 -13.9 -6.2 98 -0.1 WNW 28 39 15 21 1000.5 - 3.6
01/05:00am -5.8 -12.3 -5.9 99 -0.2 NW 20 32 11 17 1000.2 - 3.6
01/04:30am -6.1 -14.9 -6.4 98 -0.2 WNW 32 41 17 22 1000.0 - 3.6
01/04:00am -5.6 -13.6 -5.7 99 -0.2 NW 28 41 15 22 999.8 - 3.6
01/03:30am -5.8 -13.8 -5.9 99 -0.2 WNW 28 44 15 24 999.9 - 3.6
01/03:00am -5.9 -15.6 -6.0 99 -0.2 W 37 57 20 31 999.6 1001.1 3.6
01/02:53am -5.5 -14.8 -5.6 99 -0.2 W 35 56 19 30 999.4 - 3.6
01/02:30am -3.8 -11.2 -3.9 99 -0.1 WNW 26 44 14 24 999.3 - 3.6
01/02:00am -3.4 -11.9 -3.5 99 -0.1 WNW 32 44 17 24 999.4 - 3.4
01/01:49am -3.4 -11.2 -3.5 99 -0.1 NNW 28 46 15 25 998.9 - 3.2
01/01:30am -3.4 -12.5 -3.5 99 -0.1 NNW 35 52 19 28 998.7 - 3.0
01/01:01am -3.2 -11.7 -3.3 99 -0.1 NNW 32 50 17 27 998.8 - 2.8
01/01:00am -3.2 -11.7 -3.3 99 -0.1 NNW 32 48 17 26 998.8 - 2.8
01/12:30am -2.9 -12.7 -2.9 100 0.0 NNW 39 57 21 31 998.9 - 2.4
01/12:00am -2.4 -11.7 -2.4 100 0.0 NNW 37 57 20 31 998.2 999.7 2.0
 
Date/Time
EST
Temp
°C
App
Temp
°C
Dew
Point
Rel
Hum
%
Delta-T
°C
Wind Press
QNH
hPa
Press
MSL
hPa
Rain
since 9 am
mm
Dir
 
Spd
km/h
Gust
km/h
Spd
kts
Gust
kts
31/11:30pm -1.5 -11.1 -1.5 100 0.0 NW 39 63 21 34 998.2 - 1.0
31/11:00pm -0.5 -11.7 -0.5 100 0.0 NW 48 78 26 42 998.0 - 0.6
31/10:30pm -0.2 -11.7 -0.2 100 0.0 NW 50 80 27 43 998.3 - 0.0
31/10:18pm -0.1 -12.7 -0.1 100 0.0 WNW 56 95 30 51 998.2 - 0.0
31/10:00pm 0.5 -11.3 0.5 100 0.0 NNW 52 78 28 42 998.6 - 0.0
31/09:30pm 2.2 -10.4 -0.1 85 1.0 NNW 56 78 30 42 998.0 - 0.0
31/09:00pm 2.8 -10.9 -0.6 78 1.4 NNW 61 87 33 47 998.0 999.7 0.0
31/08:30pm 2.9 -11.5 -0.5 78 1.4 NNW 65 89 35 48 998.2 - 0.0
31/08:00pm 3.2 -11.2 -0.8 75 1.7 NNW 65 93 35 50 999.1 - 0.0
31/07:30pm 3.2 -10.5 -0.6 76 1.6 NNW 61 96 33 52 998.9 - 0.0
31/07:00pm 3.0 -9.9 -0.5 78 1.5 NNW 57 80 31 43 999.2 - 0.0
31/06:30pm 3.1 -10.1 0.0 80 1.3 NNW 59 82 32 44 999.3 - 0.0
31/06:00pm 2.9 -9.3 0.3 83 1.1 NNW 54 83 29 45 999.9 1001.7 0.0
31/05:30pm 3.0 -9.7 0.7 85 1.0 NNW 57 87 31 47 999.8 - 0.0
31/05:00pm 2.8 -10.3 0.9 87 0.8 NNW 59 91 32 49 999.3 - 0.0
31/04:30pm 2.6 -10.0 1.6 93 0.4 NNW 57 85 31 46 999.6 - 0.0
31/04:00pm 2.5 -10.7 2.5 100 0.0 NNW 61 83 33 45 999.2 - 0.0
31/03:30pm 2.4 -12.3 2.4 100 0.0 NNW 69 95 37 51 999.5 - 0.0
31/03:00pm 2.2 -12.7 2.2 100 0.0 NNW 70 98 38 53 999.6 1001.5 0.0
31/02:30pm 1.8 -13.0 1.8 100 0.0 NNW 69 100 37 54 999.9 - 0.0
31/02:00pm 1.6 -13.8 1.6 100 0.0 NNW 72 96 39 52 1000.4 - 0.0
31/01:30pm 1.5 -15.1 1.5 100 0.0 NNW 78 106 42 57 1000.1 - 0.0
31/01:00pm 1.5 -14.7 1.5 100 0.0 NNW 76 98 41 53 1000.1 - 0.0
31/12:30pm 1.2 -15.0 1.2 100 0.0 NNW 76 106 41 57 1001.0 - 0.0
31/12:00pm 1.1 -14.0 1.1 100 0.0 NNW 70 100 38 54 1002.1 1004.1 0.0
31/11:52am 1.1 -13.8 1.1 100 0.0 NNW 69 100 37 54 1001.8 - 0.0
31/11:30am 0.8 -13.4 0.8 100 0.0 NNW 65 87 35 47 1003.8 - 0.0
31/11:00am 0.9 -11.8 0.9 100 0.0 NNW 57 80 31 43 1005.0 - 0.0
31/10:30am 0.8 -11.7 0.8 100 0.0 NNW 56 82 30 44 1005.8 - 0.0
31/10:00am 0.8 -11.3 0.8 100 0.0 NNW 54 74 29 40 1006.2 - 0.0
31/09:30am 0.9 -11.8 0.9 100 0.0 NNW 57 76 31 41 1006.9 - 0.0
31/09:00am 1.2 -12.6 1.2 100 0.0 NNW 63 87 34 47 1006.7 1008.8 7.6
31/08:30am 1.6 -10.4 1.6 100 0.0 NNW 54 72 29 39 1007.1 - 7.6
31/08:00am 1.9 -12.1 1.9 100 0.0 NNW 65 95 35 51 1007.5 - 7.6
31/07:30am 2.1 -10.8 2.1 100 0.0 NNW 59 89 32 48 1007.6 - 7.6
31/07:00am 2.2 -11.0 2.2 100 0.0 NNW 61 87 33 47 1007.9 - 7.6
31/06:30am 2.2 -10.1 2.2 100 0.0 NNW 56 80 30 43 1008.1 - 7.6
31/06:05am 2.2 -11.8 2.2 100 0.0 NW 65 85 35 46 1008.6 - 7.6
31/06:04am 2.1 -12.9 2.1 100 0.0 NW 70 85 38 46 1008.6 - 7.6
31/06:00am 2.2 -9.3 2.2 100 0.0 NNW 52 78 28 42 1008.5 1010.7 7.6
31/05:30am 2.3 -9.6 2.3 100 0.0 NNW 54 78 29 42 1008.5 - 7.4
31/05:00am 2.3 -10.2 2.3 100 0.0 NNW 57 76 31 41 1008.6 - 7.4
31/04:30am 2.3 -9.6 2.3 100 0.0 NNW 54 76 29 41 1009.0 - 7.4
31/04:00am 2.3 -9.2 2.3 100 0.0 NNW 52 82 28 44 1009.4 - 7.4
31/03:30am 2.2 -8.9 2.2 100 0.0 NNW 50 69 27 37 1009.8 - 7.4
31/03:00am 2.0 -9.6 2.0 100 0.0 NNW 52 76 28 41 1010.1 1012.4 7.0
31/02:38am 2.0 -9.6 2.0 100 0.0 NNW 52 87 28 47 1010.4 - 7.0
31/02:30am 2.0 -8.4 2.0 100 0.0 NNW 46 67 25 36 1010.5 - 7.0
31/02:00am 1.7 -10.8 1.7 100 0.0 NNW 57 95 31 51 1010.8 - 6.8
31/01:30am 1.9 -11.4 1.9 100 0.0 NW 61 87 33 47 1010.9 - 6.8
31/01:00am 1.7 -12.4 1.7 100 0.0 NW 65 85 35 46 1011.3 - 6.8
31/12:30am 1.9 -11.4 1.9 100 0.0 NNW 61 85 33 46 1011.5 - 6.8
31/12:00am 2.0 -12.0 2.0 100 0.0 NNW 65 95 35 51 1011.5 1013.9 6.8
 
Date/Time
EST
Temp
°C
App
Temp
°C
Dew
Point
Rel
Hum
%
Delta-T
°C
Wind Press
QNH
hPa
Press
MSL
hPa
Rain
since 9 am
mm
Dir
 
Spd
km/h
Gust
km/h
Spd
kts
Gust
kts
30/11:30pm 1.9 -12.1 1.9 100 0.0 NNW 65 89 35 48 1011.7 - 6.6
30/11:00pm 2.1 -9.8 2.1 100 0.0 NNW 54 80 29 43 1011.5 - 6.4
30/10:30pm 2.1 -10.2 2.1 100 0.0 NNW 56 85 30 46 1012.3 - 6.4
30/10:00pm 2.2 -10.6 2.2 100 0.0 NNW 59 85 32 46 1012.1 - 6.4
30/09:30pm 2.2 -10.6 2.2 100 0.0 NNW 59 87 32 47 1012.5 - 6.4
30/09:00pm 2.0 -11.6 2.0 100 0.0 NW 63 91 34 49 1012.5 1014.9 6.4
30/08:30pm 2.4 -9.5 2.4 100 0.0 NW 54 82 29 44 1012.9 - 6.4
30/08:00pm 2.5 -9.9 2.5 100 0.0 NNW 57 82 31 44 1012.7 - 6.4
30/07:30pm 2.4 -9.5 2.4 100 0.0 NW 54 82 29 44 1012.7 - 6.2
30/07:00pm 2.4 -9.5 2.4 100 0.0 NW 54 80 29 43 1012.5 - 6.2
30/06:30pm 2.4 -9.8 2.4 100 0.0 WNW 56 82 30 44 1012.5 - 6.0
30/06:26pm 2.4 -10.8 2.4 100 0.0 WNW 61 82 33 44 1012.6 - 5.8
30/06:25pm 2.4 -11.6 2.4 100 0.0 WNW 65 82 35 44 1012.4 - 5.8
30/06:00pm 2.5 -7.8 2.5 100 0.0 NW 46 70 25 38 1012.6 1015.0 5.6
30/05:30pm 2.3 -9.6 2.3 100 0.0 WNW 54 76 29 41 1012.7 - 4.8
30/05:00pm 2.5 -8.2 2.5 100 0.0 NW 48 78 26 42 1011.8 - 4.8
30/04:30pm 2.4 -7.9 2.4 100 0.0 NW 46 67 25 36 1012.0 - 4.4
30/04:00pm 2.4 -9.5 2.4 100 0.0 NNW 54 78 29 42 1011.8 - 4.2
30/03:30pm 2.6 -9.2 2.6 100 0.0 NNW 54 74 29 40 1011.7 - 4.2
30/03:00pm 2.5 -9.0 2.5 100 0.0 NW 52 74 28 40 1012.0 1014.4 3.8
30/02:30pm 2.4 -7.9 2.4 100 0.0 NW 46 74 25 40 1011.7 - 3.8
30/02:00pm 2.4 -8.7 2.4 100 0.0 NNW 50 76 27 41 1012.3 - 3.6
30/01:30pm 2.4 -8.7 2.4 100 0.0 NNW 50 72 27 39 1011.9 - 3.2
30/01:00pm 2.4 -7.9 2.4 100 0.0 NW 46 67 25 36 1012.6 - 3.2
30/12:33pm 2.4 -7.9 2.4 100 0.0 NNW 46 70 25 38 1012.9 - 3.0
30/12:30pm 2.5 -8.2 2.5 100 0.0 NNW 48 63 26 34 1013.0 - 3.0
30/12:00pm 2.3 -7.5 2.3 100 0.0 NNW 43 63 23 34 1013.1 1015.5 3.0
30/11:30am 2.4 -6.6 2.4 100 0.0 NW 39 63 21 34 1013.6 - 2.6
30/11:00am 2.3 -6.7 2.3 100 0.0 NNW 39 61 21 33 1014.2 - 2.2
30/10:30am 2.4 -6.6 2.4 100 0.0 NNW 39 57 21 31 1013.8 - 1.6

Other Formats:

Comma delimited format used in spreadsheet applications
http://www.bom.gov.au/fwo/IDV60801/IDV60801.94903.axf

JavaScript Object Notation format (JSON) in row-major order
http://www.bom.gov.au/fwo/IDV60801/IDV60801.94903.json